Aeroporto :
LOGIN :

Iscrizione | Disclaimer

   EN    FR    IT 

 










Sommario :    VFR   VFR Marginale   IFR   IFR Intensivo   IFR Molto Intensivo
Visibilità : 
Base nubi : 
>= 8 km
>= 3000ft
5 / 8 km
1000 / 3000 ft
1500m / 5 km
500 / 1000 ft
800 / 1500m
200 / 500 ft
< 800m
< 200 ft
Simboli :   Temporali  Nebbia  Neve Forte  Precipitazioni Forti  Vento > 20 kt
SIGMETs :   Varie  Temporali  Ghiacco  Turbolenza  Onda orograficha  Ceneri Vulcaniche






- Altitudine del aeroporto : 821 ft
- Codice IATA : LYS


LFLL - Lyon St Exupéry / Satolas

ULTIMO METAR :
  • 041430Z 06004KT 4500 -RA BR FEW004 BKN031 OVC040 05/04 Q1010 TEMPO 22015G25KT 2500 RA FEW025TCU OVC040

METARs OBSOLETI :
  • 041400Z 25005KT 5000 -RA BKN004 05/04 Q1010 TEMPO 22015G25KT 2500 RA FEW025TCU OVC040
  • 041330Z 31003KT 260V020 7000 -RA BKN004 05/04 Q1010 TEMPO 4000 -RA BR
  • 041300Z 36005KT 330V030 6000 -RA BKN004 05/04 Q1010 TEMPO 4000 -RA BR
  • 041230Z 02005KT 4800 -RA BR BKN004 04/04 Q1010 TEMPO 6000 NSW
  • 041200Z 03005KT 350V060 5000 BKN003 04/04 Q1010 TEMPO 4000 -RA BR

TAF AMD TAF LFLL
Valido dal 04 a 14 ore il 05 a 18 ore UTC


041422Z 0414/0518 03005KT 6000 FEW004 SCT025 OVC035
TEMPO 0414/0417 22015G25KT 2500 RA FEW025TCU OVC030
FM041700 16005KT 9999 BKN050
BECMG 0421/0424 VRB02KT 0500 FG VV///
TEMPO 0500/0511 0200
BECMG 0511/0513 6000 NSW OVC004
PROB40
TEMPO 0511/0518 3000 BR OVC002



MetMap, La meteo Aeronautica in un colpo d'occhio ! - Copyright ORBIFLY Dicembre 2007 - Disclaimer

ORBIFLY MET'MAP TEAM :

Programmazione e sviluppo : Alexandra Zaïnal
Concezione : Baudouin d'Aumeries
Supporto tecnico e logistico : Manuel Goepfert
Aiuto : Marc-Olivier Méhu
Aiuto per la traduzione : Arnaldo La Scala




FONTI E CREDITI :

   NOAA